EUFO2: Eufaula Lake

Data processed at Fri Jan 05 2018 23:49


All information presented herein is the property of the government of the United States of America and may be revised or deleted at any time without prior notice.
Dissemination of this information without the expressed written consent of the Public Affairs Office, Tulsa District U.S. Army Corps of Engineers is strictly prohibited.
These data are gathered electronically and, as presented, have not undergone any form of quality control. These data are not guaranteed to be valid or correct.
Go to home page.
Go to station list.

Upstream stations:

Downstream station:
Previous Day
Next Day
Current Day
    
SHEF ID:       EUFO2     Eufaula Lake
STATION TYPE:  RESERVOIR
Normal Pool:  Bottom =   565.00, Top =   585.00

               PRECIP ELEVATION   STORAGE   TW-ELEV    INFLOW   RELEASE  AIR-TEMP  WIND-DIRWIND-SPEED REL-HUMID SOLAR-RAD   VOLTAGE  BAT-LOAD
                   in        ft     ac-ft        ft       cfs       cfs         F       deg       mph         %      W/m2      volt      volt
              Ccp-Rev   Ccp-Rev   Ccp-Rev   Ccp-Rev  Regi-Rev  Regi-Rev   Ccp-Rev   Ccp-Rev   Ccp-Rev   Ccp-Rev   Ccp-Rev   Ccp-Rev   Ccp-Rev
(US/Central)
01/03 00:00      0.00    582.05   1930254    484.17        13         0     24.30    264.10      8.71     49.09      0.00     13.69     13.36
01/03 01:00      0.00    582.01   1926782    483.80        43         0     24.62    291.80      4.62     51.35      0.00     13.68     13.53
01/03 02:00      0.00    581.99   1925073    483.50       225         0     23.52    273.20      9.24     51.47      0.00     13.69     13.53
01/03 03:00      0.00    582.00   1925914    483.28       225         0     20.44    238.90      4.93     57.64      0.00     13.69     13.53
01/03 04:00      0.00    582.01   1926782    483.09       225         0     24.08    247.80      3.98     62.65      0.00     13.68     13.53
01/03 05:00      0.00    582.01   1926782    482.94       212         0     21.00    266.20     12.58     57.52      0.00     13.68     13.53
01/03 06:00      0.00    581.98   1924233    484.37       181      8985     21.65    237.90      6.14     57.64      0.00     13.68     13.53
01/03 07:00      0.00    581.98   1924233    487.72        11     12420     23.31    248.80      5.11     55.07      0.00     13.68     13.53
01/03 08:00      0.00    582.01   1926782    488.86        21     12585     24.40    272.60     12.33     59.35      7.00     13.68     13.53
01/03 09:00      0.00    581.99   1925073    489.02        21     12585     24.08    286.20     11.70     60.51    133.00     13.68     13.53
01/03 10:00      0.00    581.95   1921711    489.00        21      8425     26.73    297.40      1.89     49.34    312.00     13.68     13.53
01/03 11:00      0.00    581.98   1924233    486.67        21         0     29.35    320.40      1.49     50.31    461.00     13.69     13.53
01/03 12:00      0.00    581.98   1924233    485.54        11         0     31.10    305.70      2.11     46.10    558.00     13.69     13.53
01/03 13:00      0.00    581.94   1920870    484.79         0         0     33.85    305.90      1.83     43.78    596.00     13.70     13.53
01/03 14:00      0.00    581.93   1920030    484.25        41         0     34.95    330.60      1.87     42.74    567.00     13.70     13.53
01/03 15:00      0.00    581.93   1920030    483.86        41         0     36.16    325.40      1.72     45.12    475.00     13.70     13.53
01/03 16:00      0.00    581.89   1916667    484.52        41      8067     37.36    323.60      1.68     41.34    329.00     13.71     13.36
01/03 17:00      0.00    581.88   1915826    487.91        41     12420     36.61    329.20      1.80     40.97    147.00     13.71     13.53
01/03 18:00      0.00    581.90   1917508    488.87        41     12585     34.07    339.30      1.98     43.60      7.00     13.71     13.53
01/03 19:00      0.00    581.90   1917508    488.99      4816     12585     33.30    344.80      1.66     44.81      0.00     13.71     13.53
01/03 20:00      0.00    581.87   1914986    489.18      4902     12585     32.43    341.80      1.12     45.73      0.00     13.71     13.53
01/03 21:00      0.00    581.89   1916667    489.22      4989     12585     31.66    348.90      1.40     50.62      0.00     13.71     13.53
01/03 22:00      0.00    581.89   1916667    488.96      5075      7798     30.78    339.90      1.24     50.86      0.00     13.71     13.53
01/03 23:00      0.00    581.89   1916667    486.71      5075         0     29.79    340.30      0.91     59.10      0.00     13.71     13.53